createdAt,value
2024-04-19T00:07:13.189Z,2.50
2024-04-19T00:38:55.635Z,3.70
2024-04-19T00:41:57.833Z,2.45
2024-04-19T00:44:59.942Z,2.35
2024-04-19T00:48:07.271Z,3.60
2024-04-19T00:51:27.832Z,3.80
2024-04-19T00:54:30.000Z,2.58
2024-04-19T00:57:32.143Z,3.08
2024-04-19T01:00:34.311Z,2.65
2024-04-19T01:03:36.865Z,2.97
2024-04-19T01:06:38.971Z,3.00
2024-04-19T01:09:41.016Z,2.72
2024-04-19T01:12:43.244Z,2.33
2024-04-19T01:15:45.484Z,2.47
2024-04-19T01:18:50.873Z,2.00
2024-04-19T01:21:53.008Z,2.23
2024-04-19T01:24:55.063Z,3.03
2024-04-19T01:27:57.080Z,2.80
2024-04-19T01:30:59.093Z,3.15
2024-04-19T01:34:01.472Z,3.03
2024-04-19T01:37:04.662Z,2.83
2024-04-19T01:40:10.915Z,2.67
2024-04-19T01:43:12.930Z,2.03
2024-04-19T01:46:15.075Z,3.00
2024-04-19T01:49:17.117Z,2.90
2024-04-19T01:52:19.192Z,2.70
2024-04-19T01:55:21.274Z,2.53
2024-04-19T01:58:23.874Z,3.05
2024-04-19T02:01:26.393Z,2.00
2024-04-19T02:04:29.080Z,3.55
2024-04-19T02:07:31.195Z,2.60
2024-04-19T02:10:36.672Z,2.03
2024-04-19T02:13:38.732Z,2.33
2024-04-19T02:16:41.145Z,2.10
2024-04-19T02:19:44.812Z,2.90
2024-04-19T02:22:46.915Z,3.93
2024-04-19T02:25:48.984Z,3.63
2024-04-19T02:29:09.656Z,2.72
2024-04-19T02:32:11.729Z,3.70
2024-04-19T02:35:13.820Z,2.58
2024-04-19T02:38:16.027Z,4.20
2024-04-19T02:41:18.073Z,3.15
2024-04-19T02:44:20.235Z,4.00
2024-04-19T02:47:22.406Z,3.65
2024-04-19T02:50:24.539Z,3.43
2024-04-19T02:53:26.637Z,3.33
2024-04-19T02:56:28.795Z,3.08
2024-04-19T02:59:30.981Z,3.55
2024-04-19T03:02:33.084Z,3.58
2024-04-19T03:05:35.232Z,2.13
2024-04-19T03:08:37.305Z,2.37
2024-04-19T03:11:39.350Z,3.00
2024-04-19T03:14:41.372Z,3.70
2024-04-19T03:17:43.520Z,3.22
2024-04-19T03:20:45.588Z,2.70
2024-04-19T03:23:47.678Z,2.97
2024-04-19T03:26:49.892Z,3.72
2024-04-19T03:29:58.735Z,3.53
2024-04-19T03:33:00.828Z,4.05
2024-04-19T03:36:05.943Z,3.13
2024-04-19T03:39:10.289Z,3.77
2024-04-19T03:42:13.941Z,6.68
2024-04-19T03:45:35.896Z,3.92
2024-04-19T03:48:38.167Z,3.78
2024-04-19T03:51:40.251Z,3.50
2024-04-19T03:54:44.969Z,2.40
2024-04-19T03:57:49.736Z,6.07
2024-04-19T04:00:51.999Z,3.25
2024-04-19T04:03:55.219Z,2.97
2024-04-19T04:06:57.389Z,5.10
2024-04-19T04:09:59.911Z,3.43
2024-04-19T04:13:08.505Z,2.80
2024-04-19T04:16:10.598Z,5.40
2024-04-19T04:19:12.738Z,7.13
2024-04-19T04:22:14.871Z,3.38
2024-04-19T04:25:17.043Z,2.90
2024-04-19T04:28:19.166Z,4.68
2024-04-19T04:31:26.655Z,4.63
2024-04-19T04:34:28.791Z,4.05
2024-04-19T04:37:35.397Z,2.20
2024-04-19T04:40:38.027Z,2.60
2024-04-19T04:43:41.181Z,5.15
2024-04-19T04:46:43.447Z,3.58
2024-04-19T04:49:45.559Z,2.92
2024-04-19T04:52:47.972Z,3.17
2024-04-19T04:55:51.041Z,4.90
2024-04-19T04:58:53.103Z,2.33
2024-04-19T05:01:55.142Z,3.15
2024-04-19T05:04:58.207Z,2.65
2024-04-19T05:08:01.526Z,5.33
2024-04-19T05:11:06.023Z,3.77
2024-04-19T05:14:09.307Z,2.80
2024-04-19T05:17:11.424Z,7.28
2024-04-19T05:20:13.546Z,6.57
2024-04-19T05:23:15.632Z,3.33
2024-04-19T05:26:17.690Z,6.20
2024-04-19T05:29:19.769Z,2.28
2024-04-19T05:32:22.697Z,4.28
2024-04-19T05:35:25.922Z,2.42
2024-04-19T05:38:27.974Z,3.85
2024-04-19T05:41:30.152Z,3.40
2024-04-19T05:44:32.912Z,2.95
2024-04-19T05:47:35.103Z,3.75
2024-04-19T05:50:37.321Z,3.45
2024-04-19T05:53:39.349Z,2.83
2024-04-19T05:56:41.490Z,3.97
2024-04-19T05:59:43.837Z,3.63
2024-04-19T06:02:45.905Z,3.20
2024-04-19T06:05:47.950Z,1.35
2024-04-19T06:08:52.184Z,5.30
2024-04-19T06:11:54.301Z,2.93
2024-04-19T06:14:56.378Z,2.10
2024-04-19T07:22:41.090Z,4.13
2024-04-19T07:25:43.552Z,4.32
2024-04-19T07:28:45.543Z,3.37
2024-04-19T07:55:59.002Z,2.20
2024-04-19T07:59:01.174Z,3.40
2024-04-19T08:02:03.444Z,2.35
2024-04-19T08:05:06.016Z,3.90
2024-04-19T08:08:07.944Z,1.48
2024-04-19T08:11:09.919Z,4.05
2024-04-19T08:14:11.890Z,2.95
2024-04-19T08:17:13.824Z,2.88
2024-04-19T08:20:15.730Z,2.20
2024-04-19T08:23:18.546Z,6.95
2024-04-19T08:26:20.523Z,3.83
2024-04-19T08:29:30.219Z,2.05
2024-04-19T08:32:37.375Z,2.22
2024-04-19T08:35:39.683Z,4.43
2024-04-19T08:38:41.549Z,2.25
2024-04-19T08:41:45.900Z,3.78
2024-04-19T08:44:49.024Z,2.92
2024-04-19T08:47:51.704Z,2.40
2024-04-19T08:50:56.595Z,2.73
2024-04-19T08:53:59.287Z,3.30
2024-04-19T08:57:02.265Z,6.03
2024-04-19T09:00:13.326Z,2.88
2024-04-19T09:03:20.203Z,3.15
2024-04-19T09:06:25.760Z,1.83
2024-04-19T09:09:28.189Z,4.38
2024-04-19T09:12:30.172Z,3.22
2024-04-19T09:15:32.193Z,3.40
2024-04-19T09:18:34.291Z,3.10
2024-04-19T09:21:36.285Z,3.13
2024-04-19T09:24:40.123Z,2.25
2024-04-19T09:27:42.453Z,5.72
2024-04-19T09:30:45.458Z,3.30
2024-04-19T09:33:47.519Z,3.20
2024-04-19T09:36:49.693Z,2.80
2024-04-19T09:39:51.897Z,2.58
2024-04-19T09:42:56.098Z,3.63
2024-04-19T09:45:58.336Z,2.25
2024-04-19T09:49:04.492Z,2.20
2024-04-19T09:52:09.904Z,2.97
2024-04-19T09:55:18.560Z,2.25
2024-04-19T09:58:21.448Z,2.20
2024-04-19T10:01:24.096Z,2.53
2024-04-19T10:04:26.841Z,3.78
2024-04-19T10:07:29.397Z,3.63
2024-04-19T10:10:31.395Z,16.08
2024-04-19T10:13:33.311Z,3.85
2024-04-19T10:16:37.248Z,1.63
2024-04-19T10:19:49.281Z,2.20
2024-04-19T10:22:55.031Z,3.40
2024-04-19T10:26:00.601Z,7.13
2024-04-19T10:29:02.517Z,4.88
2024-04-19T10:32:04.749Z,4.32
2024-04-19T10:35:11.784Z,2.83
2024-04-19T10:38:16.750Z,2.13
2024-04-19T10:41:18.801Z,4.35
2024-04-19T10:44:28.493Z,3.45
2024-04-19T10:47:30.736Z,6.13
2024-04-19T10:50:32.798Z,2.15
2024-04-19T10:53:36.455Z,2.10
2024-04-19T10:56:38.765Z,2.47
2024-04-19T10:59:40.820Z,2.03
2024-04-19T11:02:42.919Z,3.40
2024-04-19T11:05:44.850Z,2.65
2024-04-19T11:08:46.989Z,1.33
2024-04-19T11:11:49.368Z,3.13
2024-04-19T11:14:51.314Z,1.75
2024-04-19T11:17:53.337Z,2.78
2024-04-19T11:21:01.339Z,1.25
2024-04-19T11:24:09.985Z,1.33
2024-04-19T11:27:13.606Z,1.92
2024-04-19T11:30:15.581Z,1.65
2024-04-19T11:33:17.914Z,2.35
2024-04-19T11:36:19.937Z,1.70
2024-04-19T11:39:22.968Z,2.03
2024-04-19T11:42:25.650Z,1.35
2024-04-19T11:45:29.715Z,1.60
2024-04-19T11:48:32.747Z,1.67
2024-04-19T11:55:25.928Z,1.97
2024-04-19T11:58:29.169Z,1.63
2024-04-19T12:01:31.167Z,1.58
2024-04-19T12:19:17.829Z,1.92
2024-04-19T12:33:36.311Z,1.80
2024-04-19T13:05:10.582Z,3.20
2024-04-19T13:36:07.330Z,1.58
2024-04-19T13:39:09.708Z,1.88
2024-04-19T13:42:11.647Z,2.42
2024-04-19T13:45:13.676Z,1.98
2024-04-19T13:48:15.647Z,1.63
2024-04-19T13:51:17.711Z,2.10
2024-04-19T13:54:19.641Z,4.10
2024-04-19T13:57:24.958Z,4.13
2024-04-19T14:00:27.127Z,1.60
2024-04-19T14:03:29.129Z,2.87
2024-04-19T14:06:31.174Z,1.95
2024-04-19T14:09:33.217Z,2.97
2024-04-19T14:12:38.447Z,2.05
2024-04-19T14:15:41.685Z,1.30
2024-04-19T14:18:43.872Z,1.77
2024-04-19T14:21:48.815Z,2.03
2024-04-19T14:24:53.092Z,1.95
2024-04-19T14:27:56.217Z,1.90
2024-04-19T14:30:58.153Z,7.07
2024-04-19T14:34:00.178Z,5.73
2024-04-19T14:37:02.253Z,1.77
2024-04-19T14:40:04.686Z,3.22
2024-04-19T14:43:07.388Z,3.15
2024-04-19T14:46:09.878Z,1.38
2024-04-19T14:49:11.889Z,1.90
2024-04-19T14:52:13.904Z,8.60
2024-04-19T14:55:15.867Z,4.43
2024-04-19T14:58:20.541Z,8.85
2024-04-19T15:01:25.747Z,3.03
2024-04-19T15:04:28.023Z,2.00
2024-04-19T15:07:30.015Z,5.05
2024-04-19T15:10:32.602Z,3.00
2024-04-19T15:13:36.615Z,2.40
2024-04-19T15:16:38.842Z,1.55
2024-04-19T15:19:40.844Z,9.33
2024-04-19T15:22:43.110Z,4.82
2024-04-19T15:25:45.037Z,1.50
2024-04-19T15:28:47.054Z,9.07
2024-04-19T15:31:49.116Z,2.25
2024-04-19T15:34:51.039Z,1.33
2024-04-19T15:37:53.034Z,1.20
2024-04-19T15:40:55.007Z,2.88
2024-04-19T15:43:56.968Z,1.40
2024-04-19T15:46:59.072Z,3.67
2024-04-19T15:50:01.004Z,5.03
2024-04-19T15:53:03.040Z,1.80
2024-04-19T15:56:05.196Z,0.70
2024-04-19T15:59:07.097Z,1.08
2024-04-19T16:02:09.117Z,1.50
2024-04-19T16:05:11.060Z,2.60
2024-04-19T16:08:13.217Z,2.33
2024-04-19T16:11:15.265Z,3.15
2024-04-19T16:14:17.215Z,8.77
2024-04-19T16:17:19.310Z,5.75
2024-04-19T16:20:21.449Z,4.63
2024-04-19T16:23:23.464Z,2.83
2024-04-19T16:26:26.201Z,2.95
2024-04-19T16:29:28.215Z,17.20
2024-04-19T16:32:30.748Z,1.70
2024-04-19T16:35:35.506Z,3.47
2024-04-19T16:38:39.023Z,3.80
2024-04-19T16:41:40.959Z,1.20
2024-04-19T16:44:48.157Z,1.05
2024-04-19T16:47:52.070Z,3.50
2024-04-19T16:50:56.432Z,1.87
2024-04-19T16:53:59.780Z,1.58
2024-04-19T16:57:01.707Z,1.20
2024-04-19T17:00:03.760Z,1.40
2024-04-19T17:03:05.981Z,2.78
2024-04-19T17:06:12.003Z,2.77
2024-04-19T17:09:14.134Z,2.33
2024-04-19T17:12:16.083Z,6.43
2024-04-19T17:15:24.796Z,4.35
2024-04-19T17:18:26.800Z,7.63
2024-04-19T17:21:29.087Z,7.27
2024-04-19T17:24:31.035Z,7.63
2024-04-19T17:27:33.040Z,8.48
2024-04-19T17:30:43.411Z,29.60
2024-04-19T17:33:45.532Z,29.70
2024-04-19T17:36:47.561Z,16.40
2024-04-19T17:39:49.539Z,12.20
2024-04-19T17:42:51.687Z,19.52
2024-04-19T17:45:53.670Z,9.40
2024-04-19T17:48:55.631Z,8.52
2024-04-19T17:51:58.602Z,4.03
2024-04-19T17:55:00.771Z,2.75
2024-04-19T17:58:02.779Z,5.72
2024-04-19T18:01:04.914Z,7.20
2024-04-19T18:04:07.102Z,6.53
2024-04-19T18:07:08.995Z,4.90
2024-04-19T18:10:10.929Z,5.80
2024-04-19T18:13:12.929Z,6.82
2024-04-19T18:16:15.928Z,7.78
2024-04-19T18:19:18.095Z,6.10
2024-04-19T18:50:24.161Z,10.93
2024-04-19T18:53:26.237Z,4.90
2024-04-19T18:56:28.243Z,3.72
2024-04-19T18:59:52.116Z,4.83
2024-04-19T19:03:13.848Z,4.10
2024-04-19T19:06:35.640Z,4.78
2024-04-19T19:09:58.003Z,7.45
2024-04-19T19:12:59.857Z,10.73
2024-04-19T19:16:01.865Z,13.50
2024-04-19T19:19:03.783Z,10.63
2024-04-19T19:22:06.569Z,9.10
2024-04-19T19:25:08.871Z,7.38
2024-04-19T19:28:12.724Z,7.75
2024-04-19T19:31:14.935Z,7.50
2024-04-19T19:34:17.111Z,4.60
2024-04-19T19:37:19.197Z,6.35
2024-04-19T19:40:21.279Z,9.68
2024-04-19T19:43:25.337Z,11.40
2024-04-19T19:46:31.600Z,9.23
2024-04-19T19:49:35.960Z,10.05
2024-04-19T19:52:38.068Z,11.93
2024-04-19T19:55:39.893Z,9.77
2024-04-19T19:58:42.303Z,8.07
2024-04-19T20:02:02.870Z,4.67
2024-04-19T20:05:23.878Z,9.15
2024-04-19T20:08:26.086Z,8.68
2024-04-19T20:11:28.287Z,5.85
2024-04-19T20:14:30.410Z,9.48
2024-04-19T20:17:32.998Z,11.13
2024-04-19T20:20:34.998Z,10.10
2024-04-19T20:23:37.059Z,10.98
2024-04-19T20:26:39.012Z,7.50
2024-04-19T20:29:40.901Z,10.85
2024-04-19T20:32:42.908Z,9.23
2024-04-19T20:35:44.877Z,13.40
2024-04-19T20:38:46.827Z,11.02
2024-04-19T20:41:48.894Z,11.85
2024-04-19T20:44:50.785Z,10.55
2024-04-19T20:47:52.759Z,5.67
2024-04-19T20:50:54.813Z,6.32
2024-04-19T20:53:57.173Z,5.90
2024-04-19T20:56:59.106Z,4.38
2024-04-19T21:00:01.009Z,5.55
2024-04-19T21:03:03.013Z,6.70
2024-04-19T21:06:05.513Z,6.28
2024-04-19T21:09:07.591Z,4.22
2024-04-19T21:12:09.580Z,3.05
2024-04-19T21:15:13.063Z,4.00
2024-04-19T21:18:15.087Z,3.30
2024-04-19T21:21:17.008Z,3.90
2024-04-19T21:24:18.926Z,4.50
2024-04-19T21:27:22.312Z,5.35
2024-04-19T21:30:25.413Z,4.07
2024-04-19T21:33:27.546Z,3.43
2024-04-19T21:36:31.462Z,6.28
2024-04-19T21:39:33.421Z,5.95
2024-04-19T21:42:40.747Z,4.63
2024-04-19T21:45:44.069Z,4.60
2024-04-19T21:48:46.103Z,4.17
2024-04-19T21:51:48.080Z,4.68
2024-04-19T21:54:50.092Z,3.42
2024-04-19T21:57:53.114Z,3.90
2024-04-19T22:00:55.239Z,3.55
2024-04-19T22:03:59.976Z,4.13
2024-04-19T22:07:02.168Z,4.25
2024-04-19T22:10:04.263Z,4.57
2024-04-19T22:13:13.276Z,2.75
2024-04-19T22:16:15.251Z,2.90
2024-04-19T22:19:17.109Z,2.13
2024-04-19T22:22:19.175Z,2.78
2024-04-19T22:25:21.250Z,3.08
2024-04-19T22:28:23.724Z,3.75
2024-04-19T22:31:25.669Z,2.35
2024-04-19T22:34:27.672Z,2.53
2024-04-19T22:37:29.732Z,4.28
2024-04-19T22:40:31.638Z,2.85
2024-04-19T22:43:35.484Z,2.15
2024-04-19T22:46:38.905Z,3.92
2024-04-19T22:49:42.346Z,2.83
2024-04-19T22:52:44.387Z,4.10
2024-04-19T22:55:56.227Z,4.15
2024-04-19T22:58:58.774Z,3.42
2024-04-19T23:02:00.771Z,2.77
2024-04-19T23:05:02.765Z,2.13
2024-04-19T23:08:05.817Z,2.35
2024-04-19T23:11:07.775Z,4.32
2024-04-19T23:14:09.762Z,2.90
2024-04-19T23:17:11.657Z,3.80
2024-04-19T23:20:13.577Z,2.47
2024-04-19T23:23:15.470Z,3.95
2024-04-19T23:26:17.800Z,3.13
2024-04-19T23:29:19.703Z,2.60
2024-04-19T23:32:21.595Z,2.75
2024-04-19T23:35:23.590Z,2.60
2024-04-19T23:38:26.025Z,5.47
2024-04-19T23:41:28.003Z,4.10
2024-04-19T23:44:31.017Z,3.13
2024-04-19T23:47:33.037Z,2.72
2024-04-19T23:50:37.780Z,3.00
2024-04-19T23:53:39.675Z,3.90
2024-04-19T23:56:41.795Z,2.97
2024-04-19T23:59:43.782Z,3.67
